Time;durP1;ratioP1;P1;durP2;ratioP2;P2;SDS_P1;SDS_P2;PMS_P1;PMS_P2;Temp;Humidity;BMP_temperature;BMP_pressure;BME280_temperature;BME280_humidity;BME280_pressure;Samples;Min_cycle;Max_cycle;Signal;HPM_P1;HPM_P2
2022/01/22 00:00:18;;;;;;;;;;;24.20;99.90;;;;;;5074032;28;20317;-71
2022/01/22 00:02:45;;;;;;;;;;;24.20;99.90;;;;;;5074037;28;20007;-71
2022/01/22 00:05:12;;;;;;;;;;;24.20;99.90;;;;;;5073649;28;19908;-72
2022/01/22 00:07:39;;;;;;;;;;;24.40;99.90;;;;;;5073528;28;20450;-71
2022/01/22 00:10:11;;;;;;;;;;;24.60;99.90;;;;;;5072964;28;20083;-72
2022/01/22 00:15:09;;;;;;;;;;;24.50;99.90;;;;;;5073842;28;19916;-71
2022/01/22 00:17:35;;;;;;;;;;;24.50;99.90;;;;;;5073489;28;19919;-71
2022/01/22 00:20:03;;;;;;;;;;;24.60;99.90;;;;;;5072806;28;19912;-71
2022/01/22 00:22:33;;;;;;;;;;;24.60;99.90;;;;;;5073740;28;20083;-72
2022/01/22 00:25:01;;;;;;;;;;;24.80;99.90;;;;;;5073065;28;19944;-72
2022/01/22 00:27:28;;;;;;;;;;;24.80;99.90;;;;;;5073233;28;20009;-72
2022/01/22 00:29:56;;;;;;;;;;;25.00;99.90;;;;;;5073186;28;19917;-71
2022/01/22 00:32:22;;;;;;;;;;;25.30;99.90;;;;;;5073145;28;19912;-71
2022/01/22 00:34:49;;;;;;;;;;;25.30;99.90;;;;;;5073337;28;19913;-70
2022/01/22 00:37:16;;;;;;;;;;;25.30;99.90;;;;;;5072888;28;20275;-70
2022/01/22 00:39:42;;;;;;;;;;;25.30;99.90;;;;;;5072420;28;20455;-71
2022/01/22 00:42:13;;;;;;;;;;;25.30;99.90;;;;;;5073035;28;20030;-71
2022/01/22 00:44:40;;;;;;;;;;;25.10;99.90;;;;;;5072875;28;19909;-71
2022/01/22 00:47:06;;;;;;;;;;;25.10;99.90;;;;;;5072519;28;19917;-70
2022/01/22 00:49:33;;;;;;;;;;;24.90;99.90;;;;;;5072528;28;20421;-71
2022/01/22 00:52:00;;;;;;;;;;;24.80;99.90;;;;;;5072682;28;19909;-71
2022/01/22 00:54:27;;;;;;;;;;;24.70;99.90;;;;;;5072687;28;19916;-71
2022/01/22 00:56:53;;;;;;;;;;;25.00;99.90;;;;;;5072944;28;19996;-72
2022/01/22 00:59:20;;;;;;;;;;;25.30;99.90;;;;;;5071981;28;19924;-72
2022/01/22 01:01:47;;;;;;;;;;;25.60;99.90;;;;;;5072474;28;19908;-72
2022/01/22 01:04:14;;;;;;;;;;;25.80;99.90;;;;;;5072742;28;19909;-72
2022/01/22 01:06:40;;;;;;;;;;;25.50;99.90;;;;;;5072724;28;20054;-71
2022/01/22 01:09:09;;;;;;;;;;;25.30;99.90;;;;;;5072402;28;20363;-71
2022/01/22 01:11:41;;;;;;;;;;;25.30;99.90;;;;;;5071452;28;19909;-70
2022/01/22 01:14:10;;;;;;;;;;;25.60;99.90;;;;;;5070355;28;19995;-71
2022/01/22 01:33:00;;;;;;;;;;;26.60;99.10;;;;;;5072627;28;19955;-70
2022/01/22 01:35:27;;;;;;;;;;;26.60;98.60;;;;;;5072276;28;19951;-69
2022/01/22 01:37:56;;;;;;;;;;;26.60;98.90;;;;;;5071694;28;19909;-68
2022/01/22 01:40:28;;;;;;;;;;;26.60;98.60;;;;;;5072065;28;19921;-69
2022/01/22 01:45:24;;;;;;;;;;;27.20;98.50;;;;;;5072052;28;19951;-70
2022/01/22 01:47:59;;;;;;;;;;;26.90;98.10;;;;;;5071895;28;19913;-70
2022/01/22 01:50:26;;;;;;;;;;;26.60;98.90;;;;;;5071426;28;19943;-70
2022/01/22 01:57:26;;;;;;;;;;;26.40;99.60;;;;;;5072293;28;19995;-70
2022/01/22 01:58:21;;;;;;;;;;;26.80;99.20;;;;;;5065315;28;20278;-71
2022/01/22 02:00:48;;;;;;;;;;;26.60;99.80;;;;;;5034147;28;20010;-70
2022/01/22 02:03:15;;;;;;;;;;;26.20;98.90;;;;;;5051997;28;19955;-71
2022/01/22 02:05:41;;;;;;;;;;;25.70;99.40;;;;;;5051394;28;19909;-70
2022/01/22 02:08:09;;;;;;;;;;;25.30;99.10;;;;;;5051584;28;20298;-71
2022/01/22 02:10:40;;;;;;;;;;;25.30;99.90;;;;;;5052746;28;19916;-70
2022/01/22 02:24:07;;;;;;;;;;;25.20;99.90;;;;;;5055913;28;19924;-70
2022/01/22 02:26:34;;;;;;;;;;;24.90;99.90;;;;;;5055609;28;19909;-72
2022/01/22 02:29:01;;;;;;;;;;;24.60;99.90;;;;;;5055673;28;19916;-70
2022/01/22 02:32:18;;;;;;;;;;;24.70;99.90;;;;;;5055420;28;19963;-69
2022/01/22 02:34:32;;;;;;;;;;;24.80;99.90;;;;;;5054617;28;19909;-70
2022/01/22 02:37:05;;;;;;;;;;;24.80;99.90;;;;;;5054928;28;19997;-69
2022/01/22 02:39:58;;;;;;;;;;;24.80;99.90;;;;;;5055134;28;19920;-68
2022/01/22 02:42:29;;;;;;;;;;;24.80;99.90;;;;;;5055358;28;19909;-70
2022/01/22 02:44:56;;;;;;;;;;;24.70;99.90;;;;;;5055502;28;20339;-69
2022/01/22 02:47:23;;;;;;;;;;;24.60;99.90;;;;;;5055046;28;19908;-69
2022/01/22 02:49:50;;;;;;;;;;;24.50;99.90;;;;;;5067421;28;20019;-70
2022/01/22 02:52:17;;;;;;;;;;;24.40;99.90;;;;;;5075221;28;19909;-69
2022/01/22 02:54:45;;;;;;;;;;;24.20;99.90;;;;;;5073409;28;19908;-70
2022/01/22 02:57:12;;;;;;;;;;;24.10;99.90;;;;;;5074911;28;19999;-70
2022/01/22 02:59:40;;;;;;;;;;;24.00;99.90;;;;;;5074875;28;19959;-69
2022/01/22 03:02:08;;;;;;;;;;;24.00;99.90;;;;;;5074850;28;19909;-68
2022/01/22 03:04:35;;;;;;;;;;;24.00;99.90;;;;;;5074983;28;19908;-69
2022/01/22 03:07:01;;;;;;;;;;;23.80;99.90;;;;;;5074749;28;19954;-70
2022/01/22 03:09:31;;;;;;;;;;;23.80;99.90;;;;;;5074908;28;19908;-69
2022/01/22 03:20:06;;;;;;;;;;;24.30;99.90;;;;;;5074388;28;19917;-70
2022/01/22 03:27:47;;;;;;;;;;;24.40;99.90;;;;;;5074663;28;19979;-70
2022/01/22 03:30:14;;;;;;;;;;;24.40;99.90;;;;;;5074661;28;19908;-70
2022/01/22 03:32:44;;;;;;;;;;;24.40;99.90;;;;;;5074546;28;19912;-69
2022/01/22 03:37:52;;;;;;;;;;;24.60;99.90;;;;;;5074079;28;19909;-71
2022/01/22 03:40:23;;;;;;;;;;;24.60;99.90;;;;;;5074092;28;19916;-69
2022/01/22 03:42:51;;;;;;;;;;;24.70;99.90;;;;;;5074653;28;19915;-71
2022/01/22 03:45:18;;;;;;;;;;;24.70;99.90;;;;;;5074385;28;19908;-70
2022/01/22 03:47:45;;;;;;;;;;;24.80;99.90;;;;;;5074127;28;19908;-71
2022/01/22 03:50:13;;;;;;;;;;;24.80;99.90;;;;;;5073419;28;20282;-71
2022/01/22 03:52:39;;;;;;;;;;;24.60;99.90;;;;;;5073968;28;20279;-69
2022/01/22 03:55:10;;;;;;;;;;;24.60;99.90;;;;;;5073997;28;19954;-70
2022/01/22 03:57:37;;;;;;;;;;;24.60;99.90;;;;;;5073916;28;19913;-72
2022/01/22 04:00:05;;;;;;;;;;;24.60;99.90;;;;;;5073595;28;19924;-69
2022/01/22 04:03:07;;;;;;;;;;;24.70;99.90;;;;;;5074061;28;19944;-71
2022/01/22 04:05:23;;;;;;;;;;;24.70;99.90;;;;;;5073729;28;19912;-71
2022/01/22 04:08:14;;;;;;;;;;;24.70;99.90;;;;;;5073380;28;19908;-69
2022/01/22 04:10:41;;;;;;;;;;;24.70;99.90;;;;;;5073737;28;20011;-72
2022/01/22 04:13:12;;;;;;;;;;;24.60;99.90;;;;;;5073610;28;19908;-71
2022/01/22 04:15:40;;;;;;;;;;;24.60;99.90;;;;;;5073696;28;19909;-71
2022/01/22 04:29:02;;;;;;;;;;;24.50;99.90;;;;;;5073410;28;19948;-71
2022/01/22 04:31:28;;;;;;;;;;;24.40;99.90;;;;;;5072349;28;19908;-71
2022/01/22 04:33:55;;;;;;;;;;;24.40;99.90;;;;;;5072283;28;19909;-69
2022/01/22 04:36:21;;;;;;;;;;;24.40;99.90;;;;;;5072959;28;20611;-71
2022/01/22 04:38:48;;;;;;;;;;;24.60;99.90;;;;;;5072888;28;20316;-70
2022/01/22 04:41:15;;;;;;;;;;;24.70;99.90;;;;;;5072680;28;19920;-71
2022/01/22 04:43:43;;;;;;;;;;;24.70;99.90;;;;;;5073133;28;20354;-71
2022/01/22 04:57:04;;;;;;;;;;;24.50;99.90;;;;;;5072761;28;19915;-69
2022/01/22 04:59:31;;;;;;;;;;;24.50;99.90;;;;;;5072976;28;20329;-69
2022/01/22 05:01:58;;;;;;;;;;;24.50;99.90;;;;;;5072461;28;20290;-71
2022/01/22 05:04:25;;;;;;;;;;;24.40;99.90;;;;;;5072839;28;19999;-71
2022/01/22 05:06:51;;;;;;;;;;;24.30;99.90;;;;;;5072402;28;19909;-71
2022/01/22 05:09:18;;;;;;;;;;;24.30;99.90;;;;;;5072479;28;19916;-71
2022/01/22 05:11:44;;;;;;;;;;;24.30;99.90;;;;;;5072591;28;19915;-69
2022/01/22 05:14:11;;;;;;;;;;;24.40;99.90;;;;;;5072701;28;19909;-71
2022/01/22 05:16:38;;;;;;;;;;;24.30;99.90;;;;;;5072431;28;19908;-70
2022/01/22 05:19:14;;;;;;;;;;;24.20;99.90;;;;;;5072482;28;19912;-69
2022/01/22 05:21:42;;;;;;;;;;;24.10;99.90;;;;;;5071881;28;19942;-71
2022/01/22 05:24:14;;;;;;;;;;;24.10;99.90;;;;;;5072073;28;19913;-71
2022/01/22 05:27:08;;;;;;;;;;;24.10;99.90;;;;;;5072121;28;20007;-71
2022/01/22 05:37:28;;;;;;;;;;;23.90;99.90;;;;;;5071989;28;19955;-72
2022/01/22 05:39:55;;;;;;;;;;;24.00;99.90;;;;;;5071872;28;19966;-71
2022/01/22 05:42:22;;;;;;;;;;;24.00;99.90;;;;;;5072045;28;20007;-71
2022/01/22 05:44:49;;;;;;;;;;;24.10;99.90;;;;;;5071933;28;20416;-68
2022/01/22 05:47:21;;;;;;;;;;;23.90;99.90;;;;;;5071730;28;19908;-69
2022/01/22 05:49:48;;;;;;;;;;;23.90;99.90;;;;;;5071587;28;19932;-70
2022/01/22 05:52:22;;;;;;;;;;;23.90;99.90;;;;;;5071768;28;19953;-72
2022/01/22 06:00:25;;;;;;;;;;;24.00;99.90;;;;;;5031855;28;19967;-71
2022/01/22 06:02:52;;;;;;;;;;;24.00;99.90;;;;;;5031920;28;19909;-69
2022/01/22 06:05:19;;;;;;;;;;;24.00;99.90;;;;;;5031997;28;19909;-70
2022/01/22 06:07:45;;;;;;;;;;;24.00;99.90;;;;;;5031678;28;19916;-71
2022/01/22 06:10:20;;;;;;;;;;;23.90;99.90;;;;;;5032166;28;19909;-71
2022/01/22 06:13:09;;;;;;;;;;;23.90;99.90;;;;;;5032148;28;19991;-71
2022/01/22 06:15:33;;;;;;;;;;;23.90;99.90;;;;;;5031814;28;20011;-71
2022/01/22 06:17:59;;;;;;;;;;;23.90;99.90;;;;;;5031467;28;19909;-71
2022/01/22 06:20:26;;;;;;;;;;;23.80;99.90;;;;;;5031159;28;19921;-72
2022/01/22 06:22:53;;;;;;;;;;;23.70;99.90;;;;;;5031908;28;19909;-72
2022/01/22 06:25:19;;;;;;;;;;;23.60;99.90;;;;;;5031983;28;20360;-71
2022/01/22 06:27:46;;;;;;;;;;;23.70;99.90;;;;;;5031484;28;19936;-71
2022/01/22 06:30:19;;;;;;;;;;;23.70;99.90;;;;;;5031798;28;19909;-71
2022/01/22 06:32:45;;;;;;;;;;;23.80;99.90;;;;;;5047129;28;20281;-72
2022/01/22 06:35:12;;;;;;;;;;;23.80;99.90;;;;;;5031746;28;19916;-69
2022/01/22 06:37:39;;;;;;;;;;;23.70;99.90;;;;;;5031521;28;19959;-69
2022/01/22 06:42:33;;;;;;;;;;;23.70;99.90;;;;;;5031655;28;19945;-70
2022/01/22 06:45:01;;;;;;;;;;;23.60;99.90;;;;;;5031860;28;20442;-71
2022/01/22 06:47:29;;;;;;;;;;;23.60;99.90;;;;;;5031142;28;19909;-71
2022/01/22 06:49:56;;;;;;;;;;;23.50;99.90;;;;;;5044390;28;19921;-70
2022/01/22 06:52:22;;;;;;;;;;;23.60;99.90;;;;;;5051296;28;20301;-72
2022/01/22 06:54:49;;;;;;;;;;;23.60;99.90;;;;;;5051747;28;19908;-70
2022/01/22 06:57:16;;;;;;;;;;;23.50;99.90;;;;;;5052763;28;20008;-72
2022/01/22 06:59:43;;;;;;;;;;;23.50;99.90;;;;;;5060400;28;19970;-71
2022/01/22 07:02:10;;;;;;;;;;;23.40;99.90;;;;;;5074357;28;19909;-71
2022/01/22 07:04:37;;;;;;;;;;;23.40;99.90;;;;;;5073474;28;19919;-72
2022/01/22 07:07:12;;;;;;;;;;;23.40;99.90;;;;;;5074638;28;19948;-71
2022/01/22 07:09:39;;;;;;;;;;;23.40;99.90;;;;;;5074400;28;19937;-72
2022/01/22 07:12:06;;;;;;;;;;;23.40;99.90;;;;;;5074543;28;19908;-71
2022/01/22 07:14:33;;;;;;;;;;;23.50;99.90;;;;;;5074893;28;19912;-72
2022/01/22 07:17:00;;;;;;;;;;;23.60;99.90;;;;;;5074609;28;19993;-73
2022/01/22 07:19:27;;;;;;;;;;;23.50;99.90;;;;;;5073952;28;19921;-72
2022/01/22 07:22:03;;;;;;;;;;;23.60;99.90;;;;;;5074665;28;19947;-73
2022/01/22 07:24:37;;;;;;;;;;;23.60;99.90;;;;;;5074239;28;19908;-71
2022/01/22 07:27:04;;;;;;;;;;;23.60;99.90;;;;;;5074458;28;20423;-71
2022/01/22 07:29:31;;;;;;;;;;;23.50;99.90;;;;;;5074660;28;19913;-72
2022/01/22 07:32:02;;;;;;;;;;;23.40;99.90;;;;;;5074467;28;19909;-70
2022/01/22 07:34:29;;;;;;;;;;;23.30;99.90;;;;;;5074723;28;20382;-72
2022/01/22 07:36:56;;;;;;;;;;;23.10;99.90;;;;;;5074319;28;19913;-72
2022/01/22 07:39:22;;;;;;;;;;;23.10;99.90;;;;;;5073677;28;19920;-71
2022/01/22 07:41:51;;;;;;;;;;;23.10;99.90;;;;;;5074199;28;19913;-71
2022/01/22 07:44:17;;;;;;;;;;;23.10;99.90;;;;;;5074524;28;19909;-71
2022/01/22 07:46:44;;;;;;;;;;;23.10;99.90;;;;;;5074428;28;19916;-72
2022/01/22 07:49:11;;;;;;;;;;;23.00;99.90;;;;;;5074102;28;19920;-72
2022/01/22 07:51:37;;;;;;;;;;;22.90;99.90;;;;;;5073258;28;19909;-72
2022/01/22 07:54:04;;;;;;;;;;;22.90;99.90;;;;;;5073077;28;19908;-72
2022/01/22 07:56:31;;;;;;;;;;;22.90;99.90;;;;;;5074024;28;20001;-72
2022/01/22 07:58:59;;;;;;;;;;;22.90;99.90;;;;;;5074204;28;19909;-71
2022/01/22 08:01:25;;;;;;;;;;;22.80;99.90;;;;;;5073767;28;19923;-71
2022/01/22 08:03:53;;;;;;;;;;;22.80;99.90;;;;;;5073802;28;19969;-72
2022/01/22 08:06:20;;;;;;;;;;;22.80;99.90;;;;;;5073481;28;20389;-72
2022/01/22 08:08:47;;;;;;;;;;;22.70;99.90;;;;;;5073283;28;19919;-72
2022/01/22 08:11:13;;;;;;;;;;;22.70;99.90;;;;;;5073608;28;19916;-71
2022/01/22 08:13:40;;;;;;;;;;;22.70;99.90;;;;;;5073869;28;20348;-72
2022/01/22 08:16:07;;;;;;;;;;;22.70;99.90;;;;;;5073428;28;19920;-71
2022/01/22 08:18:33;;;;;;;;;;;22.70;99.90;;;;;;5073789;28;19915;-71
2022/01/22 08:21:00;;;;;;;;;;;22.60;99.90;;;;;;5072683;28;19920;-72
2022/01/22 08:23:27;;;;;;;;;;;22.60;99.90;;;;;;5072587;28;19917;-70
2022/01/22 08:25:53;;;;;;;;;;;22.60;99.90;;;;;;5072988;28;19950;-72
2022/01/22 08:31:18;;;;;;;;;;;22.60;99.90;;;;;;5072962;28;19916;-71
2022/01/22 08:36:29;;;;;;;;;;;22.40;99.90;;;;;;5072971;28;19969;-70
2022/01/22 08:38:56;;;;;;;;;;;22.30;99.90;;;;;;5072968;28;19920;-71
2022/01/22 08:41:23;;;;;;;;;;;22.40;99.90;;;;;;5073255;28;19999;-72
2022/01/22 08:43:50;;;;;;;;;;;22.30;99.90;;;;;;5073051;28;19916;-72
2022/01/22 08:46:16;;;;;;;;;;;22.20;99.90;;;;;;5073232;28;20370;-70
2022/01/22 08:48:43;;;;;;;;;;;22.10;99.90;;;;;;5072911;28;20367;-70
2022/01/22 08:51:10;;;;;;;;;;;22.20;99.90;;;;;;5073087;28;19915;-71
2022/01/22 08:53:36;;;;;;;;;;;22.10;99.90;;;;;;5073061;28;20278;-72
2022/01/22 08:56:05;;;;;;;;;;;22.00;99.90;;;;;;5072834;28;19975;-69
2022/01/22 08:58:32;;;;;;;;;;;22.00;99.90;;;;;;5072998;28;19909;-69
2022/01/22 09:00:58;;;;;;;;;;;21.90;99.90;;;;;;5072745;28;19920;-70
2022/01/22 09:03:25;;;;;;;;;;;21.90;99.90;;;;;;5072962;28;19908;-70
2022/01/22 09:05:53;;;;;;;;;;;21.80;99.90;;;;;;5071792;28;19908;-72
2022/01/22 09:08:21;;;;;;;;;;;21.80;99.90;;;;;;5072732;28;20355;-72
2022/01/22 09:10:48;;;;;;;;;;;21.80;99.90;;;;;;5072875;28;19909;-72
2022/01/22 09:13:14;;;;;;;;;;;21.80;99.90;;;;;;5072894;28;20394;-71
2022/01/22 09:15:41;;;;;;;;;;;21.70;99.90;;;;;;5072902;28;19908;-71
2022/01/22 09:18:08;;;;;;;;;;;21.60;99.90;;;;;;5072571;28;19909;-70
2022/01/22 09:23:05;;;;;;;;;;;21.60;99.90;;;;;;5072537;28;20353;-71
2022/01/22 09:25:32;;;;;;;;;;;21.60;99.90;;;;;;5072472;28;19908;-70
2022/01/22 09:27:59;;;;;;;;;;;21.60;99.90;;;;;;5072332;28;20047;-71
2022/01/22 09:30:26;;;;;;;;;;;21.60;99.90;;;;;;5072469;28;20286;-71
2022/01/22 09:32:53;;;;;;;;;;;21.50;99.90;;;;;;5072528;28;20351;-71
2022/01/22 09:35:19;;;;;;;;;;;21.50;99.90;;;;;;5072471;28;20264;-71
2022/01/22 09:37:46;;;;;;;;;;;21.50;99.90;;;;;;5072397;28;20399;-68
2022/01/22 09:40:13;;;;;;;;;;;21.50;99.90;;;;;;5072189;28;19923;-71
2022/01/22 09:42:40;;;;;;;;;;;21.50;99.90;;;;;;5072334;28;20004;-72
2022/01/22 09:45:08;;;;;;;;;;;21.50;99.90;;;;;;5072420;28;19916;-71
2022/01/22 09:47:35;;;;;;;;;;;21.50;99.90;;;;;;5072427;28;19908;-69
2022/01/22 09:50:04;;;;;;;;;;;21.40;99.90;;;;;;5071927;28;19921;-71
2022/01/22 09:52:30;;;;;;;;;;;21.50;99.90;;;;;;5072360;28;19963;-71
2022/01/22 09:54:57;;;;;;;;;;;21.50;99.90;;;;;;5072124;28;19909;-70
2022/01/22 09:57:26;;;;;;;;;;;21.50;99.90;;;;;;5071921;28;20347;-69
2022/01/22 09:59:55;;;;;;;;;;;21.60;99.90;;;;;;5069387;28;19970;-70
2022/01/22 10:02:22;;;;;;;;;;;21.60;99.90;;;;;;5072091;28;19909;-71
2022/01/22 10:04:50;;;;;;;;;;;21.50;99.90;;;;;;5071976;28;19908;-70
2022/01/22 10:07:18;;;;;;;;;;;21.50;99.90;;;;;;5071399;28;19916;-70
2022/01/22 10:10:02;;;;;;;;;;;21.60;99.90;;;;;;5071651;28;19920;-71
2022/01/22 10:12:30;;;;;;;;;;;21.60;99.90;;;;;;5071941;28;19962;-71
2022/01/22 10:15:06;;;;;;;;;;;21.60;99.90;;;;;;5072003;28;20366;-71
2022/01/22 10:17:43;;;;;;;;;;;21.60;99.90;;;;;;5070448;28;20359;-71
2022/01/22 10:20:28;;;;;;;;;;;21.60;99.90;;;;;;5071236;28;19924;-72
2022/01/22 10:22:58;;;;;;;;;;;21.60;99.90;;;;;;5072056;28;20363;-72
2022/01/22 10:25:26;;;;;;;;;;;21.60;99.90;;;;;;5071996;28;19920;-72
2022/01/22 10:28:00;;;;;;;;;;;21.60;99.90;;;;;;5071486;28;20445;-72
2022/01/22 10:30:42;;;;;;;;;;;21.50;99.90;;;;;;5071278;28;20433;-70
2022/01/22 10:35:45;;;;;;;;;;;21.50;99.90;;;;;;5075398;28;20018;-71
2022/01/22 10:38:12;;;;;;;;;;;21.50;99.90;;;;;;5075299;28;19919;-71
2022/01/22 10:40:40;;;;;;;;;;;21.40;99.90;;;;;;5075324;28;20018;-71
2022/01/22 10:43:33;;;;;;;;;;;21.40;99.90;;;;;;5075301;28;19915;-71
2022/01/22 10:46:07;;;;;;;;;;;21.40;99.90;;;;;;5073885;28;20355;-72
2022/01/22 10:48:35;;;;;;;;;;;21.40;99.90;;;;;;5073828;28;19956;-72
2022/01/22 10:51:01;;;;;;;;;;;21.30;99.90;;;;;;5074906;28;20313;-70
2022/01/22 10:53:56;;;;;;;;;;;21.30;99.90;;;;;;5075322;28;19908;-69
2022/01/22 10:56:23;;;;;;;;;;;21.20;99.90;;;;;;5073368;28;20386;-69
2022/01/22 10:59:05;;;;;;;;;;;21.20;99.90;;;;;;5074983;28;19908;-71
2022/01/22 11:01:47;;;;;;;;;;;21.20;99.90;;;;;;5074716;28;19970;-70
2022/01/22 11:04:14;;;;;;;;;;;21.20;99.90;;;;;;5074930;28;19939;-72
2022/01/22 11:06:46;;;;;;;;;;;21.20;99.90;;;;;;5074877;28;19909;-72
2022/01/22 11:09:13;;;;;;;;;;;21.20;99.90;;;;;;5074847;28;19908;-71
2022/01/22 11:11:41;;;;;;;;;;;21.20;99.90;;;;;;5074352;28;19962;-71
2022/01/22 11:14:09;;;;;;;;;;;21.20;99.90;;;;;;5074620;28;19915;-71
2022/01/22 11:16:40;;;;;;;;;;;21.20;99.90;;;;;;5074501;28;19931;-70
2022/01/22 11:19:08;;;;;;;;;;;21.20;99.90;;;;;;5074623;28;19912;-71
2022/01/22 11:21:36;;;;;;;;;;;21.20;99.90;;;;;;5074543;28;19912;-71
2022/01/22 11:24:04;;;;;;;;;;;21.20;99.90;;;;;;5074569;28;19962;-69
2022/01/22 11:26:31;;;;;;;;;;;21.20;99.90;;;;;;5073957;28;19909;-70
2022/01/22 11:28:58;;;;;;;;;;;21.20;99.90;;;;;;5074328;28;19914;-70
2022/01/22 11:31:25;;;;;;;;;;;21.20;99.90;;;;;;5074276;28;19916;-71
2022/01/22 11:33:53;;;;;;;;;;;21.20;99.90;;;;;;5074191;28;19913;-70
2022/01/22 11:36:29;;;;;;;;;;;21.20;99.90;;;;;;5074650;28;20348;-70
2022/01/22 11:38:58;;;;;;;;;;;21.20;99.90;;;;;;5074566;28;19908;-71
2022/01/22 11:41:25;;;;;;;;;;;21.20;99.90;;;;;;5073611;28;20363;-71
2022/01/22 11:46:35;;;;;;;;;;;21.20;99.90;;;;;;5074135;28;20011;-71
2022/01/22 11:49:08;;;;;;;;;;;21.30;99.90;;;;;;5073936;28;20321;-71
2022/01/22 11:51:35;;;;;;;;;;;21.30;99.90;;;;;;5073893;28;19912;-71
2022/01/22 11:54:01;;;;;;;;;;;21.30;99.90;;;;;;5074085;28;19909;-71
2022/01/22 11:56:29;;;;;;;;;;;21.30;99.90;;;;;;5073262;28;20007;-71
2022/01/22 11:58:59;;;;;;;;;;;21.30;99.90;;;;;;5073955;28;19991;-71
2022/01/22 12:01:56;;;;;;;;;;;21.30;99.90;;;;;;5073861;28;19962;-72
2022/01/22 12:04:29;;;;;;;;;;;21.40;99.90;;;;;;5073151;28;19912;-71
2022/01/22 12:07:04;;;;;;;;;;;21.30;99.90;;;;;;5073707;28;19958;-71
2022/01/22 12:09:42;;;;;;;;;;;21.30;99.90;;;;;;5073191;28;19916;-70
2022/01/22 12:15:05;;;;;;;;;;;21.00;99.90;;;;;;5073693;28;19962;-70
2022/01/22 12:17:49;;;;;;;;;;;21.10;99.90;;;;;;5073496;28;19912;-70
2022/01/22 12:23:15;;;;;;;;;;;21.00;99.90;;;;;;5069076;28;19909;-72
2022/01/22 12:25:42;;;;;;;;;;;21.00;99.90;;;;;;5073464;28;19908;-71
2022/01/22 12:28:09;;;;;;;;;;;21.00;99.90;;;;;;5073604;28;19909;-71
2022/01/22 12:30:36;;;;;;;;;;;21.00;99.90;;;;;;5073768;28;19908;-71
2022/01/22 12:33:06;;;;;;;;;;;21.00;99.90;;;;;;5073607;28;19909;-71
2022/01/22 12:35:36;;;;;;;;;;;21.00;99.90;;;;;;5073422;28;19916;-72
2022/01/22 12:38:35;;;;;;;;;;;21.00;99.90;;;;;;5073343;28;19909;-71
2022/01/22 12:44:04;;;;;;;;;;;21.00;99.90;;;;;;5073151;28;20278;-71
2022/01/22 12:46:31;;;;;;;;;;;20.90;99.90;;;;;;5073408;28;19908;-70
2022/01/22 12:48:59;;;;;;;;;;;20.90;99.90;;;;;;5072273;28;20021;-70
2022/01/22 12:51:26;;;;;;;;;;;20.90;99.90;;;;;;5073191;28;19908;-71
2022/01/22 12:53:53;;;;;;;;;;;20.90;99.90;;;;;;5072094;28;20421;-71
2022/01/22 12:59:00;;;;;;;;;;;20.90;99.90;;;;;;5073115;28;19920;-70
2022/01/22 13:01:30;;;;;;;;;;;20.80;99.90;;;;;;5073113;28;20375;-70
2022/01/22 13:03:57;;;;;;;;;;;20.80;99.90;;;;;;5072176;28;19966;-71
2022/01/22 13:06:25;;;;;;;;;;;20.80;99.90;;;;;;5073057;28;19952;-71
2022/01/22 13:08:58;;;;;;;;;;;20.80;99.90;;;;;;5073036;28;20003;-71
2022/01/22 13:11:26;;;;;;;;;;;20.80;99.90;;;;;;5072938;28;19932;-71
2022/01/22 13:13:54;;;;;;;;;;;20.80;99.90;;;;;;5072813;28;19908;-70
2022/01/22 13:16:22;;;;;;;;;;;20.80;99.90;;;;;;5072906;28;19916;-70
2022/01/22 13:18:49;;;;;;;;;;;20.80;99.90;;;;;;5072758;28;19999;-71
2022/01/22 13:21:17;;;;;;;;;;;20.90;99.90;;;;;;5072612;28;19924;-72
2022/01/22 13:23:46;;;;;;;;;;;20.90;99.90;;;;;;5072796;28;19908;-71
2022/01/22 13:26:13;;;;;;;;;;;20.90;99.90;;;;;;5072687;28;19908;-69
2022/01/22 13:28:40;;;;;;;;;;;20.90;99.90;;;;;;5072691;28;19915;-71
2022/01/22 13:31:11;;;;;;;;;;;21.00;99.90;;;;;;5072705;28;19908;-71
2022/01/22 13:49:35;;;;;;;;;;;20.90;99.90;;;;;;5072319;28;19927;-70
2022/01/22 13:52:06;;;;;;;;;;;20.90;99.90;;;;;;5072249;28;20012;-71
2022/01/22 13:54:35;;;;;;;;;;;20.90;99.90;;;;;;5072262;28;19977;-70
2022/01/22 13:57:08;;;;;;;;;;;20.90;99.90;;;;;;5072306;28;19915;-71
2022/01/22 13:59:39;;;;;;;;;;;20.80;99.90;;;;;;5072373;28;20301;-71
2022/01/22 14:04:52;;;;;;;;;;;20.70;99.90;;;;;;5072180;28;19908;-71
2022/01/22 14:07:25;;;;;;;;;;;20.70;99.90;;;;;;5075945;28;19914;-71
2022/01/22 14:09:56;;;;;;;;;;;20.70;99.90;;;;;;5076241;28;19908;-72
2022/01/22 14:12:24;;;;;;;;;;;20.60;99.90;;;;;;5076417;28;19915;-71
2022/01/22 14:14:55;;;;;;;;;;;20.60;99.90;;;;;;5076422;28;20282;-72
2022/01/22 14:17:25;;;;;;;;;;;20.50;99.90;;;;;;5076242;28;19931;-71
2022/01/22 14:20:01;;;;;;;;;;;20.50;99.90;;;;;;5075865;28;19916;-71
2022/01/22 14:22:29;;;;;;;;;;;20.40;99.90;;;;;;5076232;28;19916;-72
2022/01/22 14:25:12;;;;;;;;;;;20.40;99.90;;;;;;5076176;28;19923;-72
2022/01/22 14:27:38;;;;;;;;;;;20.30;99.90;;;;;;5076087;28;19908;-70
2022/01/22 14:30:05;;;;;;;;;;;20.30;99.90;;;;;;5075967;28;19946;-71
2022/01/22 14:32:32;;;;;;;;;;;20.20;99.90;;;;;;5076090;28;20011;-72
2022/01/22 14:34:59;;;;;;;;;;;20.20;99.90;;;;;;5075838;28;19908;-71
2022/01/22 14:37:31;;;;;;;;;;;20.10;99.90;;;;;;5075878;28;19912;-71
2022/01/22 14:45:23;;;;;;;;;;;19.70;99.90;;;;;;5075776;28;19975;-72
2022/01/22 14:47:54;;;;;;;;;;;19.60;99.90;;;;;;5075367;28;19920;-72
2022/01/22 14:50:21;;;;;;;;;;;19.60;99.90;;;;;;5075615;28;19943;-72
2022/01/22 14:52:49;;;;;;;;;;;19.50;99.90;;;;;;5075648;28;19908;-71
2022/01/22 14:55:16;;;;;;;;;;;19.50;99.90;;;;;;5075553;28;19931;-72
2022/01/22 14:57:43;;;;;;;;;;;19.40;99.90;;;;;;5075459;28;19915;-70
2022/01/22 15:00:11;;;;;;;;;;;19.40;99.90;;;;;;5075304;28;19940;-72
2022/01/22 15:02:38;;;;;;;;;;;19.30;99.90;;;;;;5075429;28;19909;-72
2022/01/22 15:05:08;;;;;;;;;;;19.40;99.90;;;;;;5075470;28;19916;-72
2022/01/22 15:07:34;;;;;;;;;;;19.40;99.90;;;;;;5075317;28;19913;-71
2022/01/22 15:10:01;;;;;;;;;;;19.30;99.90;;;;;;5090991;28;19956;-71
2022/01/22 15:12:28;;;;;;;;;;;19.30;99.90;;;;;;5075353;28;20394;-72
2022/01/22 15:14:54;;;;;;;;;;;19.30;99.90;;;;;;5075313;28;19951;-72
2022/01/22 15:19:49;;;;;;;;;;;19.30;99.90;;;;;;5074814;28;20370;-71
2022/01/22 15:22:17;;;;;;;;;;;19.20;99.90;;;;;;5075292;28;19908;-71
2022/01/22 15:24:45;;;;;;;;;;;19.20;99.90;;;;;;5075211;28;19942;-71
2022/01/22 15:27:13;;;;;;;;;;;19.00;99.90;;;;;;5075259;28;19908;-72
2022/01/22 15:35:12;;;;;;;;;;;19.10;99.90;;;;;;5074998;28;19999;-72
2022/01/22 15:37:44;;;;;;;;;;;19.10;99.90;;;;;;5074816;28;19958;-71
2022/01/22 15:40:11;;;;;;;;;;;19.20;99.90;;;;;;5074408;28;19912;-72
2022/01/22 15:42:37;;;;;;;;;;;19.20;99.90;;;;;;5074726;28;20359;-71
2022/01/22 15:45:04;;;;;;;;;;;19.30;99.90;;;;;;5074558;28;20359;-70
2022/01/22 15:47:31;;;;;;;;;;;19.30;99.90;;;;;;5074584;28;19908;-71
2022/01/22 15:49:58;;;;;;;;;;;19.30;99.90;;;;;;5074189;28;19921;-74
2022/01/22 15:52:26;;;;;;;;;;;19.40;99.90;;;;;;5074535;28;19954;-72
2022/01/22 15:54:52;;;;;;;;;;;19.40;99.90;;;;;;5074524;28;19916;-71
2022/01/22 15:57:20;;;;;;;;;;;19.40;99.90;;;;;;5074424;28;19909;-72
2022/01/22 15:59:46;;;;;;;;;;;19.50;99.90;;;;;;5074159;28;19920;-71
2022/01/22 16:02:13;;;;;;;;;;;19.50;99.90;;;;;;5074230;28;19913;-72
2022/01/22 16:04:40;;;;;;;;;;;19.60;99.90;;;;;;5074283;28;19944;-73
2022/01/22 16:07:40;;;;;;;;;;;19.60;99.90;;;;;;5074237;28;20432;-72
2022/01/22 16:10:01;;;;;;;;;;;19.60;99.90;;;;;;5073598;28;20002;-72
2022/01/22 16:12:28;;;;;;;;;;;19.60;99.90;;;;;;5074133;28;19908;-72
2022/01/22 16:14:58;;;;;;;;;;;19.60;99.90;;;;;;5074272;28;19913;-72
2022/01/22 16:17:30;;;;;;;;;;;19.80;99.90;;;;;;5074052;28;20377;-72
2022/01/22 16:19:58;;;;;;;;;;;19.80;99.90;;;;;;5073661;28;19913;-71
2022/01/22 16:22:27;;;;;;;;;;;19.80;99.90;;;;;;5073958;28;19916;-72
2022/01/22 16:24:55;;;;;;;;;;;19.90;99.90;;;;;;5073995;28;20010;-72
2022/01/22 16:27:24;;;;;;;;;;;19.90;99.90;;;;;;5073719;28;19915;-72
2022/01/22 16:29:54;;;;;;;;;;;19.90;99.90;;;;;;5072536;28;19909;-71
2022/01/22 16:32:23;;;;;;;;;;;19.90;99.90;;;;;;5073673;28;19912;-72
2022/01/22 16:34:50;;;;;;;;;;;19.90;99.90;;;;;;5073615;28;19954;-72
2022/01/22 16:37:17;;;;;;;;;;;19.90;99.90;;;;;;5073554;28;19959;-72
2022/01/22 16:39:44;;;;;;;;;;;19.90;99.90;;;;;;5073485;28;19916;-72
2022/01/22 16:42:16;;;;;;;;;;;19.90;99.90;;;;;;5073536;28;19913;-72
2022/01/22 16:55:23;;;;;;;;;;;20.00;99.90;;;;;;5073379;28;20248;-71
2022/01/22 16:57:57;;;;;;;;;;;20.00;99.90;;;;;;5073101;28;20381;-73
2022/01/22 17:00:29;;;;;;;;;;;20.00;99.90;;;;;;5073189;28;19924;-72
2022/01/22 17:02:57;;;;;;;;;;;20.00;99.90;;;;;;5073098;28;19931;-72